createdAt,value
2023-05-09T00:01:46.522Z,16.55
2023-05-09T00:04:13.337Z,16.08
2023-05-09T00:06:40.082Z,15.23
2023-05-09T00:09:07.109Z,16.08
2023-05-09T00:11:33.810Z,16.10
2023-05-09T00:14:00.746Z,15.80
2023-05-09T00:16:28.708Z,16.52
2023-05-09T00:18:56.067Z,16.88
2023-05-09T00:21:24.870Z,16.60
2023-05-09T00:23:51.559Z,16.58
2023-05-09T00:26:18.267Z,15.65
2023-05-09T00:28:45.006Z,16.67
2023-05-09T00:31:12.118Z,16.58
2023-05-09T00:33:38.853Z,16.45
2023-05-09T00:36:05.868Z,15.98
2023-05-09T00:38:32.510Z,16.75
2023-05-09T00:40:59.155Z,16.35
2023-05-09T00:43:26.248Z,16.33
2023-05-09T00:45:55.492Z,16.63
2023-05-09T00:48:24.775Z,16.90
2023-05-09T00:50:53.040Z,17.02
2023-05-09T00:53:20.716Z,16.60
2023-05-09T00:55:47.623Z,17.17
2023-05-09T00:58:19.338Z,17.90
2023-05-09T01:00:46.524Z,17.98
2023-05-09T01:03:15.834Z,17.48
2023-05-09T01:06:25.727Z,17.95
2023-05-09T01:09:19.595Z,18.27
2023-05-09T01:11:52.810Z,17.52
2023-05-09T01:14:37.695Z,18.02
2023-05-09T01:17:25.968Z,17.77
2023-05-09T01:20:02.614Z,18.30
2023-05-09T01:22:34.808Z,17.40
2023-05-09T01:25:10.253Z,17.60
2023-05-09T01:27:53.514Z,18.35
2023-05-09T01:30:21.049Z,18.50
2023-05-09T01:32:51.286Z,19.02
2023-05-09T01:35:19.709Z,17.63
2023-05-09T01:37:50.423Z,18.55
2023-05-09T01:40:21.257Z,19.35
2023-05-09T01:42:52.475Z,19.40
2023-05-09T01:45:20.784Z,18.85
2023-05-09T01:47:50.021Z,19.48
2023-05-09T01:50:18.932Z,19.52
2023-05-09T01:52:49.421Z,19.73
2023-05-09T01:55:21.254Z,19.88
2023-05-09T01:57:52.618Z,19.95
2023-05-09T02:00:21.160Z,20.98
2023-05-09T02:02:48.515Z,20.17
2023-05-09T02:05:17.168Z,20.67
2023-05-09T02:07:46.953Z,21.05
2023-05-09T02:10:16.144Z,19.98
2023-05-09T02:12:42.875Z,20.75
2023-05-09T02:15:09.991Z,21.02
2023-05-09T02:17:37.203Z,20.25
2023-05-09T02:20:05.286Z,20.60
2023-05-09T02:22:32.089Z,21.35
2023-05-09T02:24:58.901Z,21.30
2023-05-09T02:27:28.439Z,21.55
2023-05-09T02:29:57.630Z,19.27
2023-05-09T02:32:28.396Z,22.48
2023-05-09T02:34:56.977Z,20.30
2023-05-09T02:37:24.662Z,19.52
2023-05-09T02:39:51.817Z,21.65
2023-05-09T02:42:25.016Z,20.05
2023-05-09T02:44:54.471Z,21.92
2023-05-09T02:47:21.854Z,21.58
2023-05-09T02:49:50.836Z,21.23
2023-05-09T02:52:17.468Z,20.52
2023-05-09T02:54:44.120Z,19.52
2023-05-09T02:57:10.952Z,20.40
2023-05-09T02:59:37.699Z,20.88
2023-05-09T03:02:05.026Z,20.35
2023-05-09T03:04:31.668Z,20.77
2023-05-09T03:06:58.561Z,20.33
2023-05-09T03:09:25.397Z,20.23
2023-05-09T03:11:52.113Z,20.90
2023-05-09T03:14:21.127Z,21.27
2023-05-09T03:16:47.895Z,20.23
2023-05-09T03:19:17.267Z,19.83
2023-05-09T03:21:43.952Z,18.75
2023-05-09T03:24:10.941Z,19.95
2023-05-09T03:26:37.742Z,19.27
2023-05-09T03:29:07.015Z,19.80
2023-05-09T03:31:34.120Z,18.67
2023-05-09T03:34:03.298Z,18.98
2023-05-09T03:36:30.057Z,20.85
2023-05-09T03:38:56.791Z,18.88
2023-05-09T03:41:23.407Z,19.13
2023-05-09T03:43:50.074Z,19.35
2023-05-09T03:46:16.869Z,20.08
2023-05-09T03:48:43.581Z,19.45
2023-05-09T03:51:10.341Z,20.05
2023-05-09T03:53:37.042Z,21.00
2023-05-09T03:56:03.752Z,20.13
2023-05-09T03:58:30.358Z,19.95
2023-05-09T04:00:57.271Z,21.20
2023-05-09T04:03:24.020Z,20.60
2023-05-09T04:05:50.807Z,20.08
2023-05-09T04:08:17.512Z,19.88
2023-05-09T04:10:46.722Z,20.73
2023-05-09T04:13:13.535Z,20.15
2023-05-09T04:15:40.415Z,20.65
2023-05-09T04:18:07.261Z,21.08
2023-05-09T04:20:33.964Z,21.80
2023-05-09T04:23:00.825Z,21.45
2023-05-09T04:25:27.627Z,21.83
2023-05-09T04:27:54.281Z,22.73
2023-05-09T04:30:21.248Z,22.48
2023-05-09T04:32:48.923Z,22.38
2023-05-09T04:35:17.393Z,23.92
2023-05-09T04:37:46.475Z,23.52
2023-05-09T04:40:13.350Z,23.02
2023-05-09T04:42:40.550Z,22.73
2023-05-09T04:45:07.844Z,22.48
2023-05-09T04:47:34.902Z,21.98
2023-05-09T04:50:01.590Z,21.35
2023-05-09T04:52:30.669Z,20.58
2023-05-09T04:54:57.442Z,19.02
2023-05-09T04:57:24.351Z,20.50
2023-05-09T04:59:52.837Z,21.02
2023-05-09T05:02:22.409Z,19.38
2023-05-09T05:04:49.196Z,19.25
2023-05-09T05:07:15.852Z,19.05
2023-05-09T05:09:42.498Z,19.17
2023-05-09T05:12:09.907Z,18.90
2023-05-09T05:14:36.787Z,18.50
2023-05-09T05:17:05.708Z,18.90
2023-05-09T05:19:32.697Z,17.92
2023-05-09T05:21:59.390Z,17.73
2023-05-09T05:24:26.087Z,17.85
2023-05-09T05:26:52.891Z,18.13
2023-05-09T05:29:20.391Z,18.52
2023-05-09T05:31:47.150Z,18.67
2023-05-09T05:34:14.591Z,18.95
2023-05-09T05:36:41.214Z,19.25
2023-05-09T05:39:08.006Z,19.77
2023-05-09T05:41:34.696Z,19.10
2023-05-09T05:44:01.399Z,20.95
2023-05-09T05:46:28.101Z,20.40
2023-05-09T05:48:54.816Z,20.52
2023-05-09T05:51:22.055Z,20.38
2023-05-09T05:53:48.723Z,21.17
2023-05-09T05:56:15.295Z,19.73
2023-05-09T05:58:42.005Z,20.05
2023-05-09T06:01:08.839Z,21.25
2023-05-09T06:03:35.643Z,22.52
2023-05-09T06:06:02.908Z,21.38
2023-05-09T06:08:29.585Z,22.42
2023-05-09T06:10:56.333Z,22.20
2023-05-09T06:13:23.341Z,23.13
2023-05-09T06:15:50.080Z,23.30
2023-05-09T06:18:19.484Z,22.90
2023-05-09T06:20:46.173Z,21.85
2023-05-09T06:23:13.052Z,23.67
2023-05-09T06:25:39.688Z,24.15
2023-05-09T06:28:07.228Z,22.83
2023-05-09T06:30:33.880Z,24.42
2023-05-09T06:33:03.040Z,22.10
2023-05-09T06:35:29.716Z,21.92
2023-05-09T06:37:56.486Z,24.23
2023-05-09T06:40:23.095Z,23.63
2023-05-09T06:42:49.824Z,23.88
2023-05-09T06:45:17.000Z,22.08
2023-05-09T06:47:44.142Z,22.73
2023-05-09T06:50:11.112Z,23.83
2023-05-09T06:52:37.899Z,23.13
2023-05-09T06:55:05.091Z,24.20
2023-05-09T06:57:33.954Z,23.50
2023-05-09T07:00:00.734Z,23.50
2023-05-09T07:02:27.499Z,23.35
2023-05-09T07:04:54.338Z,22.92
2023-05-09T07:07:21.242Z,23.27
2023-05-09T07:09:49.319Z,23.38
2023-05-09T07:12:19.519Z,22.90
2023-05-09T07:14:48.388Z,22.00
2023-05-09T07:17:23.028Z,22.35
2023-05-09T07:19:51.084Z,22.50
2023-05-09T07:22:17.829Z,23.27
2023-05-09T07:24:44.611Z,22.67
2023-05-09T07:27:11.344Z,23.75
2023-05-09T07:29:40.221Z,23.50
2023-05-09T07:32:07.043Z,23.77
2023-05-09T07:34:33.849Z,22.73
2023-05-09T07:37:00.611Z,22.05
2023-05-09T07:39:27.400Z,22.55
2023-05-09T07:41:54.134Z,22.92
2023-05-09T07:44:20.820Z,21.85
2023-05-09T07:46:49.989Z,21.63
2023-05-09T07:49:18.056Z,21.10
2023-05-09T07:51:44.853Z,20.50
2023-05-09T07:54:11.868Z,19.45
2023-05-09T07:56:38.596Z,19.77
2023-05-09T07:59:05.576Z,18.92
2023-05-09T08:01:32.324Z,20.92
2023-05-09T08:03:59.202Z,20.63
2023-05-09T08:06:28.488Z,19.52
2023-05-09T08:08:55.366Z,19.08
2023-05-09T08:11:22.698Z,19.40
2023-05-09T08:13:49.392Z,19.30
2023-05-09T08:16:17.472Z,19.35
2023-05-09T08:18:47.193Z,18.30
2023-05-09T08:21:13.854Z,17.05
2023-05-09T08:23:41.258Z,18.17
2023-05-09T08:26:08.146Z,18.48
2023-05-09T08:28:34.929Z,15.90
2023-05-09T08:31:04.108Z,16.95
2023-05-09T08:33:30.861Z,17.33
2023-05-09T08:35:57.868Z,18.25
2023-05-09T08:38:24.877Z,16.75
2023-05-09T08:40:51.730Z,17.48
2023-05-09T08:43:20.199Z,16.15
2023-05-09T08:45:51.357Z,15.38
2023-05-09T08:48:19.153Z,16.85
2023-05-09T08:50:45.948Z,16.58
2023-05-09T08:53:14.136Z,14.85
2023-05-09T08:55:41.021Z,13.40
2023-05-09T08:58:09.223Z,13.73
2023-05-09T09:00:38.698Z,12.65
2023-05-09T09:03:09.156Z,11.95
2023-05-09T09:05:42.786Z,11.60
2023-05-09T09:10:41.419Z,14.18
2023-05-09T09:13:12.634Z,14.07
2023-05-09T09:15:41.635Z,14.52
2023-05-09T09:18:10.107Z,14.07
2023-05-09T09:20:50.064Z,13.27
2023-05-09T09:23:23.592Z,11.00
2023-05-09T09:26:01.492Z,12.70
2023-05-09T09:28:30.664Z,11.25
2023-05-09T09:30:57.480Z,10.60
2023-05-09T09:33:26.278Z,15.50
2023-05-09T09:35:56.035Z,14.48
2023-05-09T09:38:24.585Z,11.10
2023-05-09T09:40:58.685Z,9.82
2023-05-09T09:43:32.423Z,9.38
2023-05-09T09:46:03.687Z,10.35
2023-05-09T09:48:35.435Z,11.18
2023-05-09T09:51:11.188Z,12.38
2023-05-09T09:53:42.017Z,10.57
2023-05-09T09:56:09.321Z,13.13
2023-05-09T09:58:38.500Z,13.52
2023-05-09T10:01:10.083Z,12.95
2023-05-09T10:03:37.520Z,12.73
2023-05-09T10:06:10.946Z,13.10
2023-05-09T10:08:37.765Z,14.18
2023-05-09T10:11:07.251Z,13.13
2023-05-09T10:13:40.451Z,13.60
2023-05-09T10:16:09.290Z,14.15
2023-05-09T10:18:36.834Z,14.15
2023-05-09T10:21:05.646Z,15.18
2023-05-09T10:23:34.825Z,14.65
2023-05-09T10:26:09.967Z,14.52
2023-05-09T10:28:40.295Z,13.05
2023-05-09T10:31:18.964Z,11.48
2023-05-09T10:33:50.462Z,10.48
2023-05-09T10:36:21.708Z,9.88
2023-05-09T10:38:51.367Z,10.40
2023-05-09T10:41:22.126Z,11.60
2023-05-09T10:43:49.310Z,11.60
2023-05-09T10:46:16.526Z,9.98
2023-05-09T10:48:43.999Z,10.82
2023-05-09T10:51:11.925Z,10.45
2023-05-09T10:53:44.022Z,9.18
2023-05-09T10:56:27.011Z,10.60
2023-05-09T10:58:54.520Z,9.87
2023-05-09T11:01:37.408Z,8.25
2023-05-09T11:04:19.466Z,9.02
2023-05-09T11:06:51.932Z,8.70
2023-05-09T11:09:28.900Z,8.73
2023-05-09T11:11:58.582Z,6.85
2023-05-09T11:14:33.124Z,7.78
2023-05-09T11:17:08.406Z,8.68
2023-05-09T11:19:40.390Z,9.60
2023-05-09T11:22:28.290Z,9.60
2023-05-09T11:25:04.650Z,9.10
2023-05-09T11:27:42.531Z,9.73
2023-05-09T11:30:15.003Z,11.13
2023-05-09T11:32:55.215Z,9.10
2023-05-09T11:35:23.815Z,8.65
2023-05-09T11:37:58.269Z,7.88
2023-05-09T11:40:25.315Z,7.47
2023-05-09T11:42:56.267Z,7.20
2023-05-09T11:45:27.295Z,5.60
2023-05-09T11:47:54.299Z,6.03
2023-05-09T11:50:21.595Z,6.10
2023-05-09T11:52:49.262Z,7.68
2023-05-09T11:55:22.567Z,6.63
2023-05-09T11:57:51.710Z,7.18
2023-05-09T12:00:23.219Z,6.80
2023-05-09T12:02:51.337Z,7.03
2023-05-09T12:05:22.848Z,7.22
2023-05-09T12:07:50.117Z,7.35
2023-05-09T12:10:20.554Z,7.55
2023-05-09T12:12:51.568Z,7.00
2023-05-09T12:15:19.336Z,7.28
2023-05-09T12:17:49.625Z,8.07
2023-05-09T12:20:18.153Z,7.63
2023-05-09T12:22:45.020Z,8.38
2023-05-09T12:25:12.478Z,9.93
2023-05-09T12:27:41.262Z,11.10
2023-05-09T12:30:13.911Z,9.98
2023-05-09T12:32:41.818Z,11.73
2023-05-09T12:35:12.101Z,10.70
2023-05-09T12:37:39.192Z,9.73
2023-05-09T12:40:15.417Z,9.13
2023-05-09T12:42:46.068Z,8.75
2023-05-09T12:45:13.392Z,9.20
2023-05-09T12:47:41.776Z,9.25
2023-05-09T12:50:12.306Z,9.75
2023-05-09T12:52:50.734Z,8.00
2023-05-09T12:55:21.344Z,6.88
2023-05-09T12:57:59.056Z,7.95
2023-05-09T13:00:26.280Z,6.97
2023-05-09T13:02:53.422Z,6.68
2023-05-09T13:05:22.105Z,6.80
2023-05-09T13:07:54.673Z,6.28
2023-05-09T13:10:28.928Z,6.38
2023-05-09T13:12:55.798Z,6.30
2023-05-09T13:15:23.308Z,6.38
2023-05-09T13:17:52.127Z,5.93
2023-05-09T13:20:19.841Z,6.70
2023-05-09T13:22:46.902Z,6.53
2023-05-09T13:25:13.618Z,5.68
2023-05-09T13:27:40.356Z,6.35
2023-05-09T13:30:07.941Z,6.03
2023-05-09T13:32:36.493Z,6.20
2023-05-09T13:35:06.464Z,6.43
2023-05-09T13:37:33.688Z,6.32
2023-05-09T13:40:00.465Z,6.10
2023-05-09T13:42:27.910Z,5.68
2023-05-09T13:44:54.655Z,5.07
2023-05-09T13:47:21.484Z,5.85
2023-05-09T13:49:48.278Z,8.02
2023-05-09T13:52:16.413Z,10.18
2023-05-09T13:54:43.183Z,11.07
2023-05-09T13:57:10.158Z,11.65
2023-05-09T13:59:37.476Z,11.68
2023-05-09T14:02:04.424Z,11.43
2023-05-09T14:04:34.594Z,11.27
2023-05-09T14:07:01.808Z,11.63
2023-05-09T14:09:29.808Z,12.80
2023-05-09T14:11:57.477Z,11.77
2023-05-09T14:14:25.473Z,10.95
2023-05-09T14:16:52.644Z,11.50
2023-05-09T14:19:19.660Z,11.65
2023-05-09T14:21:49.233Z,10.32
2023-05-09T14:24:16.459Z,10.18
2023-05-09T14:26:43.719Z,9.32
2023-05-09T14:29:10.791Z,7.85
2023-05-09T14:31:37.621Z,7.78
2023-05-09T14:34:07.230Z,7.80
2023-05-09T14:36:33.943Z,8.45
2023-05-09T14:39:00.646Z,8.65
2023-05-09T14:41:27.371Z,7.35
2023-05-09T14:43:54.114Z,9.30
2023-05-09T14:46:20.925Z,7.68
2023-05-09T14:48:47.626Z,6.82
2023-05-09T14:51:16.726Z,7.50
2023-05-09T14:53:43.565Z,8.05
2023-05-09T14:56:11.492Z,6.22
2023-05-09T14:58:38.430Z,6.70
2023-05-09T15:01:05.321Z,7.07
2023-05-09T15:03:34.578Z,7.20
2023-05-09T15:06:01.519Z,6.78
2023-05-09T15:08:28.410Z,7.15
2023-05-09T15:10:55.200Z,7.05
2023-05-09T15:13:22.127Z,8.23
2023-05-09T15:15:51.780Z,8.10
2023-05-09T15:18:20.130Z,10.70
2023-05-09T15:20:49.195Z,11.43
2023-05-09T15:23:18.177Z,11.77
2023-05-09T15:25:47.416Z,11.32
2023-05-09T15:28:14.036Z,11.80
2023-05-09T15:30:41.644Z,11.18
2023-05-09T15:33:08.742Z,11.82
2023-05-09T15:35:35.483Z,10.93
2023-05-09T15:38:02.252Z,11.43
2023-05-09T15:40:29.020Z,10.40
2023-05-09T15:42:59.527Z,10.63
2023-05-09T15:45:26.269Z,10.50
2023-05-09T15:47:52.993Z,10.10
2023-05-09T15:50:22.380Z,9.48
2023-05-09T15:52:49.217Z,9.40
2023-05-09T15:55:15.977Z,10.20
2023-05-09T15:57:45.074Z,9.73
2023-05-09T16:00:16.188Z,9.93
2023-05-09T16:02:44.081Z,9.57
2023-05-09T16:05:11.386Z,9.25
2023-05-09T16:07:38.224Z,8.93
2023-05-09T16:10:05.977Z,9.45
2023-05-09T16:12:32.949Z,9.35
2023-05-09T16:14:59.743Z,8.98
2023-05-09T16:17:28.996Z,9.55
2023-05-09T16:19:55.674Z,10.23
2023-05-09T16:22:22.618Z,9.75
2023-05-09T16:24:51.548Z,9.50
2023-05-09T16:27:21.365Z,9.10
2023-05-09T16:29:48.059Z,9.60
2023-05-09T16:32:14.874Z,9.90
2023-05-09T16:34:41.535Z,9.80
2023-05-09T16:37:10.542Z,10.30
2023-05-09T16:39:37.336Z,10.75
2023-05-09T16:42:05.494Z,11.02
2023-05-09T16:44:32.298Z,11.00
2023-05-09T16:46:59.000Z,10.68
2023-05-09T16:49:25.886Z,9.68
2023-05-09T16:51:52.520Z,10.45
2023-05-09T16:54:19.281Z,10.55
2023-05-09T16:56:50.285Z,10.98
2023-05-09T16:59:17.484Z,11.13
2023-05-09T17:01:44.226Z,12.05
2023-05-09T17:04:10.895Z,12.02
2023-05-09T17:06:37.705Z,7.47
2023-05-09T17:09:04.546Z,4.85
2023-05-09T17:11:31.782Z,4.13
2023-05-09T17:13:58.489Z,4.32
2023-05-09T17:16:25.369Z,3.75
2023-05-09T17:18:52.093Z,3.60
2023-05-09T17:21:21.532Z,3.13
2023-05-09T17:23:48.342Z,3.00
2023-05-09T17:26:17.155Z,2.40
2023-05-09T17:28:43.838Z,2.35
2023-05-09T17:31:10.620Z,2.15
2023-05-09T17:33:37.274Z,2.25
2023-05-09T17:36:06.787Z,2.30
2023-05-09T17:38:34.172Z,2.17
2023-05-09T17:41:01.089Z,2.13
2023-05-09T17:43:28.468Z,2.15
2023-05-09T17:45:57.379Z,1.95
2023-05-09T17:48:24.530Z,2.03
2023-05-09T17:50:56.641Z,1.80
2023-05-09T17:53:23.607Z,2.22
2023-05-09T17:55:50.759Z,1.90
2023-05-09T17:58:17.472Z,1.83
2023-05-09T18:00:48.826Z,2.03
2023-05-09T18:03:16.098Z,1.90
2023-05-09T18:05:42.945Z,2.40
2023-05-09T18:08:09.567Z,2.17
2023-05-09T18:10:36.361Z,2.38
2023-05-09T18:13:03.410Z,2.47
2023-05-09T18:15:30.226Z,2.58
2023-05-09T18:17:57.738Z,2.40
2023-05-09T18:20:24.451Z,2.17
2023-05-09T18:22:51.148Z,2.40
2023-05-09T18:25:18.402Z,1.95
2023-05-09T18:27:45.129Z,2.00
2023-05-09T18:30:14.745Z,1.70
2023-05-09T18:32:41.849Z,1.42
2023-05-09T18:35:09.037Z,1.45
2023-05-09T18:37:36.866Z,1.70
2023-05-09T18:40:05.163Z,1.50
2023-05-09T18:42:31.839Z,1.40
2023-05-09T18:45:04.227Z,1.42
2023-05-09T18:47:31.230Z,1.42
2023-05-09T18:49:59.754Z,1.52
2023-05-09T18:52:34.344Z,1.77
2023-05-09T18:55:01.215Z,1.60
2023-05-09T18:57:28.281Z,1.58
2023-05-09T18:59:56.038Z,1.52
2023-05-09T19:02:23.587Z,1.50
2023-05-09T19:04:51.486Z,1.40
2023-05-09T19:07:18.455Z,1.52
2023-05-09T19:09:45.724Z,1.40
2023-05-09T19:12:12.469Z,1.52
2023-05-09T19:14:42.583Z,1.40
2023-05-09T19:17:09.451Z,1.77
2023-05-09T19:19:38.755Z,1.50
2023-05-09T19:22:08.015Z,1.60
2023-05-09T19:24:35.187Z,1.60
2023-05-09T19:27:04.236Z,1.63
2023-05-09T19:29:31.142Z,2.22
2023-05-09T19:32:00.970Z,1.60
2023-05-09T19:34:30.796Z,1.80
2023-05-09T19:36:57.653Z,1.70
2023-05-09T19:39:24.470Z,2.13
2023-05-09T19:41:51.156Z,1.70
2023-05-09T19:44:17.911Z,1.98
2023-05-09T19:46:47.303Z,1.77
2023-05-09T19:49:17.840Z,1.67
2023-05-09T19:51:45.132Z,1.85
2023-05-09T19:54:12.388Z,1.88
2023-05-09T19:56:39.063Z,2.00
2023-05-09T19:59:05.890Z,2.03
2023-05-09T20:01:32.618Z,1.80
2023-05-09T20:03:59.513Z,1.65
2023-05-09T20:06:26.750Z,1.60
2023-05-09T20:08:53.593Z,1.73
2023-05-09T20:11:21.583Z,1.48
2023-05-09T20:13:48.334Z,1.55
2023-05-09T20:16:15.280Z,1.42
2023-05-09T20:18:42.194Z,1.40
2023-05-09T20:21:10.322Z,1.45
2023-05-09T20:23:38.180Z,2.03
2023-05-09T20:26:05.071Z,1.55
2023-05-09T20:28:32.487Z,1.60
2023-05-09T20:30:59.235Z,1.20
2023-05-09T20:33:25.956Z,1.40
2023-05-09T20:35:52.575Z,1.30
2023-05-09T20:38:19.594Z,0.95
2023-05-09T20:40:47.094Z,1.33
2023-05-09T20:43:13.755Z,1.85
2023-05-09T20:45:40.526Z,1.52
2023-05-09T20:48:07.864Z,1.40
2023-05-09T20:50:34.737Z,1.75
2023-05-09T20:53:01.428Z,1.80
2023-05-09T20:55:30.505Z,1.70
2023-05-09T20:57:57.149Z,1.83
2023-05-09T21:00:23.905Z,1.67
2023-05-09T21:02:50.814Z,1.92
2023-05-09T21:05:17.522Z,1.50
2023-05-09T21:07:44.173Z,0.73
2023-05-09T21:10:11.364Z,0.80
2023-05-09T21:12:38.095Z,0.50
2023-05-09T21:15:07.811Z,0.50
2023-05-09T21:17:36.770Z,0.70
2023-05-09T21:20:03.587Z,0.77
2023-05-09T21:22:30.305Z,0.70
2023-05-09T21:24:56.979Z,0.98
2023-05-09T21:27:26.995Z,0.93
2023-05-09T21:29:55.861Z,0.90
2023-05-09T21:32:24.765Z,0.60
2023-05-09T21:34:51.810Z,0.50
2023-05-09T21:37:18.559Z,0.70
2023-05-09T21:39:45.382Z,0.60
2023-05-09T21:42:14.366Z,0.50
2023-05-09T21:44:41.073Z,0.50
2023-05-09T21:47:08.282Z,0.52
2023-05-09T21:49:37.695Z,0.60
2023-05-09T21:52:04.691Z,0.50
2023-05-09T21:54:31.376Z,0.60
2023-05-09T21:56:58.091Z,0.55
2023-05-09T21:59:24.822Z,0.40
2023-05-09T22:01:51.657Z,0.50
2023-05-09T22:04:20.807Z,0.40
2023-05-09T22:06:49.936Z,0.40
2023-05-09T22:09:18.730Z,0.40
2023-05-09T22:11:45.369Z,0.45
2023-05-09T22:14:12.366Z,0.35
2023-05-09T22:16:39.045Z,0.30
2023-05-09T22:19:05.749Z,0.40
2023-05-09T22:21:32.404Z,0.60
2023-05-09T22:24:01.556Z,0.35
2023-05-09T22:26:30.390Z,0.30
2023-05-09T22:28:57.052Z,0.20
2023-05-09T22:31:23.737Z,0.32
2023-05-09T22:33:50.439Z,0.20
2023-05-09T22:36:19.677Z,0.28
2023-05-09T22:38:46.568Z,0.20
2023-05-09T22:41:14.096Z,0.20
2023-05-09T22:43:41.472Z,0.35
2023-05-09T22:46:08.681Z,0.20
2023-05-09T22:48:35.370Z,0.20
2023-05-09T22:51:02.213Z,0.30
2023-05-09T22:53:28.926Z,0.20
2023-05-09T22:55:55.663Z,0.35
2023-05-09T22:58:22.695Z,0.30
2023-05-09T23:00:49.571Z,0.40
2023-05-09T23:03:16.578Z,0.38
2023-05-09T23:05:43.475Z,0.40
2023-05-09T23:08:10.194Z,0.40
2023-05-09T23:10:36.823Z,0.30
2023-05-09T23:13:04.692Z,0.50
2023-05-09T23:15:31.492Z,0.40
2023-05-09T23:17:58.282Z,0.50
2023-05-09T23:20:26.346Z,0.50
2023-05-09T23:22:53.059Z,0.50
2023-05-09T23:25:19.791Z,0.20
2023-05-09T23:27:47.087Z,0.40
2023-05-09T23:30:14.168Z,0.40
2023-05-09T23:32:41.112Z,0.43
2023-05-09T23:35:08.079Z,0.30
2023-05-09T23:37:34.757Z,0.40
2023-05-09T23:40:01.526Z,0.28
2023-05-09T23:42:28.246Z,0.30
2023-05-09T23:44:54.951Z,0.30
2023-05-09T23:47:24.120Z,0.40
2023-05-09T23:49:51.001Z,0.10
2023-05-09T23:52:17.717Z,0.30
2023-05-09T23:54:46.702Z,0.40
2023-05-09T23:57:13.381Z,0.30
2023-05-09T23:59:41.497Z,0.30
